Anjeliersgracht — PCGQ — position and weather

sailwx.info

Track history (hours):
 
Tides and Currents Weather Stations Pressure Air Temp Water Temp Dewpoint Dewpoint Depression Visibility Wind Speed Wind Dir Waves Ship Positions

Anjeliersgracht

Last reported at 2015-Jul-31 03:33 UTC. Time now 2015-Aug-01 11:49 UTC.
Position N 35°27' E 017°47'.

Length 130 m; beam 19 m; draft 9 m.

Type: Cargo ship. MMSI: 244716000.

Date/timePositionNaut miles runAvg speedWind from/ knotsBaromVisibWave heightAir tempDewpointWater temp
2015-Jul-31 03:33N 35°27' E 017°47'1514.7
2015-Jul-31 02:33N 35°30' E 017°29'1514.7
2015-Jul-31 01:33N 35°32' E 017°11'1514.8
2015-Jul-31 00:33N 35°35' E 016°53'1514.8
2015-Jul-30 23:33N 35°38' E 016°36'1514.7
2015-Jul-30 22:33N 35°40' E 016°18'1414.1
2015-Jul-30 21:33N 35°43' E 016°00'1413.8
2015-Jul-30 20:33N 35°45' E 015°44'1414.0
2015-Jul-30 19:33N 35°48' E 015°27'1414.4
2015-Jul-30 18:33N 35°50' E 015°09'1414.4
2015-Jul-30 17:32N 35°52' E 014°52'1413.9
2015-Jul-30 16:33N 35°55' E 014°35'3 0.5
2015-Jul-30 11:06N 35°54' E 014°32'4 8.2
2015-Jul-30 10:33N 35°59' E 014°32'1313.1
2015-Jul-30 09:33N 36°08' E 014°21'1413.8
2015-Jul-30 08:33N 36°17' E 014°08'1413.9
2015-Jul-30 07:33N 36°27' E 013°56'1414.1
2015-Jul-30 06:33N 36°37' E 013°43'1414.1
2015-Jul-30 05:33N 36°46' E 013°30'1413.8
2015-Jul-30 04:33N 36°57' E 013°19'1110.6
2015-Jul-30 03:33N 37°05' E 013°11'2 1.8
2015-Jul-30 02:32N 37°05' E 013°09'1313.0
2015-Jul-30 01:33N 37°12' E 012°55'1412.8
2015-Jul-30 00:25N 37°17' E 012°38'1113.0
2015-Jul-29 23:33N 37°23' E 012°27'1413.6
2015-Jul-29 22:33N 37°34' E 012°16'1413.8
2015-Jul-29 21:33N 37°45' E 012°05'1413.9
2015-Jul-29 20:33N 37°56' E 011°54'1413.9
2015-Jul-29 19:33N 38°09' E 011°49'1513.5
2015-Jul-29 18:28N 38°23' E 011°43'4113.9
2015-Jul-29 15:33N 39°01' E 011°25'1713.9
2015-Jul-29 14:21N 39°17' E 011°18'4013.8
2015-Jul-29 11:27N 39°55' E 011°01'16713.9
2015-Jul-28 23:29N 42°32' E 009°48'3414.3
2015-Jul-28 21:05N 43°04' E 009°32'713.9
2015-Jul-28 20:34N 43°11' E 009°27'1413.6
2015-Jul-28 19:34N 43°22' E 009°17'1413.9
2015-Jul-28 18:33N 43°34' E 009°07'1413.8
2015-Jul-28 17:33N 43°46' E 008°57'1514.5
2015-Jul-28 16:33N 43°58' E 008°47'1414.3
2015-Jul-28 15:33N 44°11' E 008°37'9 8.4
2015-Jul-28 14:31N 44°18' E 008°30'0 0.0
2015-Jul-28 13:31N 44°18' E 008°30'0 0.0
2015-Jul-28 12:31N 44°18' E 008°30'0 0.0
2015-Jul-28 11:31N 44°18' E 008°30'0 0.1
2015-Jul-28 10:31N 44°18' E 008°30'1 0.7
2015-Jul-28 09:32N 44°19' E 008°30'0 0.0
2015-Jul-28 08:29N 44°19' E 008°30'0 0.0
2015-Jul-28 07:29N 44°19' E 008°30'0 0.0
2015-Jul-28 06:29N 44°19' E 008°30'0 0.0
2015-Jul-28 05:32N 44°19' E 008°30'0 0.2
2015-Jul-28 04:33N 44°19' E 008°30'6 5.6
2015-Jul-28 03:33N 44°13' E 008°31'6711.1
2015-Jul-27 21:29N 43°21' E 007°31'1111.8
2015-Jul-27 20:33N 43°14' E 007°20'1212.3
2015-Jul-27 19:33N 43°06' E 007°07'1212.1
2015-Jul-27 18:33N 42°58' E 006°54'1211.8
2015-Jul-27 17:33N 42°51' E 006°42'1211.9
2015-Jul-27 16:33N 42°43' E 006°29'6212.3
2015-Jul-27 11:33N 41°51' E 005°45'17613.4
2015-Jul-26 22:23N 39°20' E 003°45'1215.0
2015-Jul-26 21:33N 39°13' E 003°32'1514.6
2015-Jul-26 20:33N 39°05' E 003°16'1514.9
2015-Jul-26 19:33N 38°58' E 002°60'1615.0
2015-Jul-26 18:30N 38°49' E 002°42'  
2015-Jul-24 00:28N 36°12' W 007°37'1213.7
2015-Jul-23 23:34N 36°16' W 007°52'1413.7
2015-Jul-23 22:31N 36°19' W 008°09'1313.7
2015-Jul-23 21:34N 36°23' W 008°25'1413.8
2015-Jul-23 20:33N 36°26' W 008°42'1413.7
2015-Jul-23 19:33N 36°30' W 008°58'1413.4
2015-Jul-23 18:33N 36°33' W 009°14'1313.3
2015-Jul-23 17:33N 36°42' W 009°27'1313.4
2015-Jul-23 16:33N 36°53' W 009°36'1414.1
2015-Jul-23 15:33N 37°07' W 009°40'1414.4
2015-Jul-23 14:33N 37°21' W 009°44'1414.2
2015-Jul-23 13:33N 37°35' W 009°48'1414.3
2015-Jul-23 12:33N 37°49' W 009°52'1414.2
2015-Jul-23 11:33N 38°03' W 009°56'1414.2
2015-Jul-23 10:34N 38°16' W 009°60'1414.0
2015-Jul-23 09:33N 38°30' W 010°03'1414.1
2015-Jul-23 08:33N 38°44' W 010°06'1414.1
2015-Jul-23 07:33N 38°58' W 010°06'1313.5
2015-Jul-23 06:33N 39°12' W 010°06'1414.2
2015-Jul-23 05:33N 39°26' W 010°06'1414.2
2015-Jul-23 04:33N 39°40' W 010°06'1414.0
2015-Jul-23 03:33N 39°54' W 010°05'1814.1
2015-Jul-23 02:18N 40°12' W 010°07'1214.2
2015-Jul-23 01:26N 40°24' W 010°07'58013.1
2015-Jul-21 05:11N 49°18' W 004°48'1013.0
2015-Jul-21 04:25N 49°24' W 004°35'  
Track history (hours):
 
Tides and Currents Weather Stations Pressure Air Temp Water Temp Dewpoint Dewpoint Depression Visibility Wind Speed Wind Dir Waves Ship Positions

Anjeliersgracht

Last reported at 2015-Jul-31 03:33 UTC. Time now 2015-Aug-01 11:49 UTC.
Position N 35°27' E 017°47'.

Length 130 m; beam 19 m; draft 9 m.

Type: Cargo ship. MMSI: 244716000.

Date/timePositionNaut miles runAvg speedWind from/ knotsBaromVisibWave heightAir tempDewpointWater temp
2015-Jul-31 03:33N 35°27' E 017°47'1514.7
2015-Jul-31 02:33N 35°30' E 017°29'1514.7
2015-Jul-31 01:33N 35°32' E 017°11'1514.8
2015-Jul-31 00:33N 35°35' E 016°53'1514.8
2015-Jul-30 23:33N 35°38' E 016°36'1514.7
2015-Jul-30 22:33N 35°40' E 016°18'1414.1
2015-Jul-30 21:33N 35°43' E 016°00'1413.8
2015-Jul-30 20:33N 35°45' E 015°44'1414.0
2015-Jul-30 19:33N 35°48' E 015°27'1414.4
2015-Jul-30 18:33N 35°50' E 015°09'1414.4
2015-Jul-30 17:32N 35°52' E 014°52'1413.9
2015-Jul-30 16:33N 35°55' E 014°35'3 0.5
2015-Jul-30 11:06N 35°54' E 014°32'4 8.2
2015-Jul-30 10:33N 35°59' E 014°32'1313.1
2015-Jul-30 09:33N 36°08' E 014°21'1413.8
2015-Jul-30 08:33N 36°17' E 014°08'1413.9
2015-Jul-30 07:33N 36°27' E 013°56'1414.1
2015-Jul-30 06:33N 36°37' E 013°43'1414.1
2015-Jul-30 05:33N 36°46' E 013°30'1413.8
2015-Jul-30 04:33N 36°57' E 013°19'1110.6
2015-Jul-30 03:33N 37°05' E 013°11'2 1.8
2015-Jul-30 02:32N 37°05' E 013°09'1313.0
2015-Jul-30 01:33N 37°12' E 012°55'1412.8
2015-Jul-30 00:25N 37°17' E 012°38'1113.0
2015-Jul-29 23:33N 37°23' E 012°27'1413.6
2015-Jul-29 22:33N 37°34' E 012°16'1413.8
2015-Jul-29 21:33N 37°45' E 012°05'1413.9
2015-Jul-29 20:33N 37°56' E 011°54'1413.9
2015-Jul-29 19:33N 38°09' E 011°49'1513.5
2015-Jul-29 18:28N 38°23' E 011°43'4113.9
2015-Jul-29 15:33N 39°01' E 011°25'1713.9
2015-Jul-29 14:21N 39°17' E 011°18'4013.8
2015-Jul-29 11:27N 39°55' E 011°01'16713.9
2015-Jul-28 23:29N 42°32' E 009°48'3414.3
2015-Jul-28 21:05N 43°04' E 009°32'713.9
2015-Jul-28 20:34N 43°11' E 009°27'1413.6
2015-Jul-28 19:34N 43°22' E 009°17'1413.9
2015-Jul-28 18:33N 43°34' E 009°07'1413.8
2015-Jul-28 17:33N 43°46' E 008°57'1514.5
2015-Jul-28 16:33N 43°58' E 008°47'1414.3
2015-Jul-28 15:33N 44°11' E 008°37'9 8.4
2015-Jul-28 14:31N 44°18' E 008°30'0 0.0
2015-Jul-28 13:31N 44°18' E 008°30'0 0.0
2015-Jul-28 12:31N 44°18' E 008°30'0 0.0
2015-Jul-28 11:31N 44°18' E 008°30'0 0.1
2015-Jul-28 10:31N 44°18' E 008°30'1 0.7
2015-Jul-28 09:32N 44°19' E 008°30'0 0.0
2015-Jul-28 08:29N 44°19' E 008°30'0 0.0
2015-Jul-28 07:29N 44°19' E 008°30'0 0.0
2015-Jul-28 06:29N 44°19' E 008°30'0 0.0
2015-Jul-28 05:32N 44°19' E 008°30'0 0.2
2015-Jul-28 04:33N 44°19' E 008°30'6 5.6
2015-Jul-28 03:33N 44°13' E 008°31'6711.1
2015-Jul-27 21:29N 43°21' E 007°31'1111.8
2015-Jul-27 20:33N 43°14' E 007°20'1212.3
2015-Jul-27 19:33N 43°06' E 007°07'1212.1
2015-Jul-27 18:33N 42°58' E 006°54'1211.8
2015-Jul-27 17:33N 42°51' E 006°42'1211.9
2015-Jul-27 16:33N 42°43' E 006°29'6212.3
2015-Jul-27 11:33N 41°51' E 005°45'17613.4
2015-Jul-26 22:23N 39°20' E 003°45'1215.0
2015-Jul-26 21:33N 39°13' E 003°32'1514.6
2015-Jul-26 20:33N 39°05' E 003°16'1514.9
2015-Jul-26 19:33N 38°58' E 002°60'1615.0
2015-Jul-26 18:30N 38°49' E 002°42'  
2015-Jul-24 00:28N 36°12' W 007°37'1213.7
2015-Jul-23 23:34N 36°16' W 007°52'1413.7
2015-Jul-23 22:31N 36°19' W 008°09'1313.7
2015-Jul-23 21:34N 36°23' W 008°25'1413.8
2015-Jul-23 20:33N 36°26' W 008°42'1413.7
2015-Jul-23 19:33N 36°30' W 008°58'1413.4
2015-Jul-23 18:33N 36°33' W 009°14'1313.3
2015-Jul-23 17:33N 36°42' W 009°27'1313.4
2015-Jul-23 16:33N 36°53' W 009°36'1414.1
2015-Jul-23 15:33N 37°07' W 009°40'1414.4
2015-Jul-23 14:33N 37°21' W 009°44'1414.2
2015-Jul-23 13:33N 37°35' W 009°48'1414.3
2015-Jul-23 12:33N 37°49' W 009°52'1414.2
2015-Jul-23 11:33N 38°03' W 009°56'1414.2
2015-Jul-23 10:34N 38°16' W 009°60'1414.0
2015-Jul-23 09:33N 38°30' W 010°03'1414.1
2015-Jul-23 08:33N 38°44' W 010°06'1414.1
2015-Jul-23 07:33N 38°58' W 010°06'1313.5
2015-Jul-23 06:33N 39°12' W 010°06'1414.2
2015-Jul-23 05:33N 39°26' W 010°06'1414.2
2015-Jul-23 04:33N 39°40' W 010°06'1414.0
2015-Jul-23 03:33N 39°54' W 010°05'1814.1
2015-Jul-23 02:18N 40°12' W 010°07'1214.2
2015-Jul-23 01:26N 40°24' W 010°07'58013.1
2015-Jul-21 05:11N 49°18' W 004°48'1013.0
2015-Jul-21 04:25N 49°24' W 004°35'  

Dump ship's entire track history